sensor_id;sensor_type;location;lat;lon;timestamp;P1;durP1;ratioP1;P2;durP2;ratioP2
43670;SDS011;29267;50.906;7.248;2023-03-13T00:02:10;19.65;;;4.20;;
43670;SDS011;29267;50.906;7.248;2023-03-13T00:04:36;15.85;;;3.22;;
43670;SDS011;29267;50.906;7.248;2023-03-13T00:07:01;19.58;;;3.28;;
43670;SDS011;29267;50.906;7.248;2023-03-13T00:09:27;16.17;;;2.53;;
43670;SDS011;29267;50.906;7.248;2023-03-13T00:11:52;13.18;;;2.67;;
43670;SDS011;29267;50.906;7.248;2023-03-13T00:14:18;12.88;;;3.17;;
43670;SDS011;29267;50.906;7.248;2023-03-13T00:16:44;14.10;;;2.72;;
43670;SDS011;29267;50.906;7.248;2023-03-13T00:19:09;12.77;;;3.35;;
43670;SDS011;29267;50.906;7.248;2023-03-13T00:21:35;13.02;;;3.95;;
43670;SDS011;29267;50.906;7.248;2023-03-13T00:24:02;19.65;;;3.03;;
43670;SDS011;29267;50.906;7.248;2023-03-13T00:26:28;19.17;;;3.08;;
43670;SDS011;29267;50.906;7.248;2023-03-13T00:28:55;15.60;;;2.78;;
43670;SDS011;29267;50.906;7.248;2023-03-13T00:31:21;12.55;;;2.63;;
43670;SDS011;29267;50.906;7.248;2023-03-13T00:33:50;21.40;;;3.00;;
43670;SDS011;29267;50.906;7.248;2023-03-13T00:36:22;16.80;;;4.30;;
43670;SDS011;29267;50.906;7.248;2023-03-13T00:38:49;16.70;;;3.15;;
43670;SDS011;29267;50.906;7.248;2023-03-13T00:41:26;17.40;;;3.08;;
43670;SDS011;29267;50.906;7.248;2023-03-13T00:43:53;25.30;;;3.80;;
43670;SDS011;29267;50.906;7.248;2023-03-13T00:46:20;16.65;;;3.47;;
43670;SDS011;29267;50.906;7.248;2023-03-13T00:48:47;25.10;;;3.90;;
43670;SDS011;29267;50.906;7.248;2023-03-13T00:51:13;17.80;;;2.55;;
43670;SDS011;29267;50.906;7.248;2023-03-13T00:53:41;17.40;;;3.35;;
43670;SDS011;29267;50.906;7.248;2023-03-13T00:56:08;10.10;;;2.45;;
43670;SDS011;29267;50.906;7.248;2023-03-13T00:58:36;12.13;;;3.05;;
43670;SDS011;29267;50.906;7.248;2023-03-13T01:03:36;12.20;;;3.65;;
43670;SDS011;29267;50.906;7.248;2023-03-13T01:06:04;15.45;;;2.63;;
43670;SDS011;29267;50.906;7.248;2023-03-13T01:08:31;21.88;;;3.00;;
43670;SDS011;29267;50.906;7.248;2023-03-13T01:11:01;11.98;;;2.72;;
43670;SDS011;29267;50.906;7.248;2023-03-13T01:13:37;14.85;;;3.30;;
43670;SDS011;29267;50.906;7.248;2023-03-13T01:16:04;13.73;;;2.97;;
43670;SDS011;29267;50.906;7.248;2023-03-13T01:18:35;21.52;;;3.60;;
43670;SDS011;29267;50.906;7.248;2023-03-13T01:21:01;19.75;;;2.95;;
43670;SDS011;29267;50.906;7.248;2023-03-13T01:23:27;17.70;;;2.90;;
43670;SDS011;29267;50.906;7.248;2023-03-13T01:25:53;18.77;;;2.80;;
43670;SDS011;29267;50.906;7.248;2023-03-13T01:28:20;14.70;;;3.45;;
43670;SDS011;29267;50.906;7.248;2023-03-13T01:30:47;21.92;;;3.55;;
43670;SDS011;29267;50.906;7.248;2023-03-13T01:33:12;18.85;;;2.78;;
43670;SDS011;29267;50.906;7.248;2023-03-13T01:35:38;16.77;;;3.15;;
43670;SDS011;29267;50.906;7.248;2023-03-13T01:38:03;18.35;;;4.80;;
43670;SDS011;29267;50.906;7.248;2023-03-13T01:40:29;17.20;;;2.25;;
43670;SDS011;29267;50.906;7.248;2023-03-13T01:42:56;22.70;;;2.65;;
43670;SDS011;29267;50.906;7.248;2023-03-13T01:48:13;12.95;;;2.55;;
43670;SDS011;29267;50.906;7.248;2023-03-13T01:50:39;15.13;;;3.10;;
43670;SDS011;29267;50.906;7.248;2023-03-13T01:53:05;17.55;;;3.22;;
43670;SDS011;29267;50.906;7.248;2023-03-13T01:55:30;17.77;;;3.17;;
43670;SDS011;29267;50.906;7.248;2023-03-13T01:57:57;22.77;;;5.22;;
43670;SDS011;29267;50.906;7.248;2023-03-13T02:00:24;17.48;;;2.60;;
43670;SDS011;29267;50.906;7.248;2023-03-13T02:02:54;16.70;;;3.42;;
43670;SDS011;29267;50.906;7.248;2023-03-13T02:05:23;15.80;;;3.72;;
43670;SDS011;29267;50.906;7.248;2023-03-13T02:10:31;20.83;;;3.08;;
43670;SDS011;29267;50.906;7.248;2023-03-13T02:13:01;11.13;;;3.45;;
43670;SDS011;29267;50.906;7.248;2023-03-13T02:15:27;18.75;;;3.25;;
43670;SDS011;29267;50.906;7.248;2023-03-13T02:17:54;15.13;;;2.90;;
43670;SDS011;29267;50.906;7.248;2023-03-13T02:20:20;13.82;;;2.67;;
43670;SDS011;29267;50.906;7.248;2023-03-13T02:30:25;13.50;;;2.38;;
43670;SDS011;29267;50.906;7.248;2023-03-13T02:32:52;10.75;;;2.30;;
43670;SDS011;29267;50.906;7.248;2023-03-13T02:35:19;15.40;;;2.90;;
43670;SDS011;29267;50.906;7.248;2023-03-13T02:37:47;18.05;;;2.45;;
43670;SDS011;29267;50.906;7.248;2023-03-13T02:40:16;14.15;;;2.80;;
43670;SDS011;29267;50.906;7.248;2023-03-13T02:42:46;13.15;;;2.85;;
43670;SDS011;29267;50.906;7.248;2023-03-13T02:45:13;11.98;;;2.50;;
43670;SDS011;29267;50.906;7.248;2023-03-13T02:47:39;10.20;;;2.03;;
43670;SDS011;29267;50.906;7.248;2023-03-13T02:50:05;5.00;;;1.63;;
43670;SDS011;29267;50.906;7.248;2023-03-13T02:52:41;14.98;;;2.28;;
43670;SDS011;29267;50.906;7.248;2023-03-13T02:55:23;13.73;;;2.33;;
43670;SDS011;29267;50.906;7.248;2023-03-13T02:58:05;11.25;;;2.22;;
43670;SDS011;29267;50.906;7.248;2023-03-13T03:00:31;16.95;;;2.78;;
43670;SDS011;29267;50.906;7.248;2023-03-13T03:02:56;12.77;;;1.63;;
43670;SDS011;29267;50.906;7.248;2023-03-13T03:05:22;10.38;;;2.00;;
43670;SDS011;29267;50.906;7.248;2023-03-13T03:07:48;10.60;;;2.55;;
43670;SDS011;29267;50.906;7.248;2023-03-13T03:10:15;9.23;;;1.42;;
43670;SDS011;29267;50.906;7.248;2023-03-13T03:12:41;11.85;;;1.45;;
43670;SDS011;29267;50.906;7.248;2023-03-13T03:15:07;8.95;;;1.90;;
43670;SDS011;29267;50.906;7.248;2023-03-13T03:17:33;10.38;;;2.05;;
43670;SDS011;29267;50.906;7.248;2023-03-13T03:19:59;11.48;;;2.22;;
43670;SDS011;29267;50.906;7.248;2023-03-13T03:22:24;5.95;;;1.52;;
43670;SDS011;29267;50.906;7.248;2023-03-13T03:24:50;15.82;;;2.05;;
43670;SDS011;29267;50.906;7.248;2023-03-13T03:27:16;9.27;;;1.95;;
43670;SDS011;29267;50.906;7.248;2023-03-13T03:29:41;9.57;;;1.45;;
43670;SDS011;29267;50.906;7.248;2023-03-13T03:32:07;2.78;;;1.15;;
43670;SDS011;29267;50.906;7.248;2023-03-13T03:34:32;8.90;;;1.13;;
43670;SDS011;29267;50.906;7.248;2023-03-13T03:36:58;9.57;;;2.30;;
43670;SDS011;29267;50.906;7.248;2023-03-13T03:39:23;5.90;;;1.15;;
43670;SDS011;29267;50.906;7.248;2023-03-13T03:41:49;7.25;;;1.15;;
43670;SDS011;29267;50.906;7.248;2023-03-13T03:44:15;3.97;;;1.02;;
43670;SDS011;29267;50.906;7.248;2023-03-13T03:46:40;2.50;;;0.95;;
43670;SDS011;29267;50.906;7.248;2023-03-13T03:49:06;7.03;;;1.25;;
43670;SDS011;29267;50.906;7.248;2023-03-13T03:51:31;7.32;;;0.93;;
43670;SDS011;29267;50.906;7.248;2023-03-13T03:53:57;5.53;;;0.98;;
43670;SDS011;29267;50.906;7.248;2023-03-13T03:56:22;1.02;;;0.65;;
43670;SDS011;29267;50.906;7.248;2023-03-13T03:58:48;5.10;;;0.70;;
43670;SDS011;29267;50.906;7.248;2023-03-13T04:01:14;5.80;;;1.10;;
43670;SDS011;29267;50.906;7.248;2023-03-13T04:03:39;2.08;;;0.60;;
43670;SDS011;29267;50.906;7.248;2023-03-13T04:06:05;5.57;;;0.73;;
43670;SDS011;29267;50.906;7.248;2023-03-13T04:08:31;1.23;;;0.60;;
43670;SDS011;29267;50.906;7.248;2023-03-13T04:10:58;1.73;;;0.68;;
43670;SDS011;29267;50.906;7.248;2023-03-13T04:13:25;1.50;;;0.57;;
43670;SDS011;29267;50.906;7.248;2023-03-13T04:15:51;4.70;;;0.60;;
43670;SDS011;29267;50.906;7.248;2023-03-13T04:18:17;4.60;;;0.80;;
43670;SDS011;29267;50.906;7.248;2023-03-13T04:20:42;1.15;;;0.55;;
43670;SDS011;29267;50.906;7.248;2023-03-13T04:23:09;3.80;;;0.80;;
43670;SDS011;29267;50.906;7.248;2023-03-13T04:25:34;3.75;;;0.47;;
43670;SDS011;29267;50.906;7.248;2023-03-13T04:28:00;3.38;;;0.95;;
43670;SDS011;29267;50.906;7.248;2023-03-13T04:30:26;3.00;;;0.70;;
43670;SDS011;29267;50.906;7.248;2023-03-13T04:32:51;2.03;;;0.45;;
43670;SDS011;29267;50.906;7.248;2023-03-13T04:35:17;1.75;;;0.60;;
43670;SDS011;29267;50.906;7.248;2023-03-13T04:37:43;2.20;;;0.80;;
43670;SDS011;29267;50.906;7.248;2023-03-13T04:40:08;1.98;;;0.60;;
43670;SDS011;29267;50.906;7.248;2023-03-13T04:42:36;1.08;;;0.77;;
43670;SDS011;29267;50.906;7.248;2023-03-13T04:45:02;2.13;;;0.95;;
43670;SDS011;29267;50.906;7.248;2023-03-13T04:47:28;3.33;;;0.60;;
43670;SDS011;29267;50.906;7.248;2023-03-13T04:49:53;1.00;;;0.60;;
43670;SDS011;29267;50.906;7.248;2023-03-13T04:52:19;3.72;;;0.28;;
43670;SDS011;29267;50.906;7.248;2023-03-13T04:54:45;3.30;;;0.60;;
43670;SDS011;29267;50.906;7.248;2023-03-13T04:57:10;1.98;;;0.35;;
43670;SDS011;29267;50.906;7.248;2023-03-13T04:59:36;3.38;;;0.50;;
43670;SDS011;29267;50.906;7.248;2023-03-13T05:02:01;1.30;;;0.80;;
43670;SDS011;29267;50.906;7.248;2023-03-13T05:04:27;1.15;;;0.60;;
43670;SDS011;29267;50.906;7.248;2023-03-13T05:06:52;0.63;;;0.40;;
43670;SDS011;29267;50.906;7.248;2023-03-13T05:09:18;0.50;;;0.50;;
43670;SDS011;29267;50.906;7.248;2023-03-13T05:11:43;1.75;;;0.50;;
43670;SDS011;29267;50.906;7.248;2023-03-13T05:14:09;1.00;;;0.70;;
43670;SDS011;29267;50.906;7.248;2023-03-13T05:16:36;0.95;;;0.70;;
43670;SDS011;29267;50.906;7.248;2023-03-13T05:19:02;1.80;;;0.60;;
43670;SDS011;29267;50.906;7.248;2023-03-13T05:21:28;0.75;;;0.43;;
43670;SDS011;29267;50.906;7.248;2023-03-13T05:23:53;0.88;;;0.60;;
43670;SDS011;29267;50.906;7.248;2023-03-13T05:26:19;1.38;;;0.60;;
43670;SDS011;29267;50.906;7.248;2023-03-13T05:28:45;0.80;;;0.50;;
43670;SDS011;29267;50.906;7.248;2023-03-13T05:31:10;2.15;;;0.40;;
43670;SDS011;29267;50.906;7.248;2023-03-13T05:33:36;0.57;;;0.40;;
43670;SDS011;29267;50.906;7.248;2023-03-13T05:36:01;0.50;;;0.50;;
43670;SDS011;29267;50.906;7.248;2023-03-13T05:38:27;0.70;;;0.60;;
43670;SDS011;29267;50.906;7.248;2023-03-13T05:40:53;0.28;;;0.28;;
43670;SDS011;29267;50.906;7.248;2023-03-13T05:43:18;0.88;;;0.40;;
43670;SDS011;29267;50.906;7.248;2023-03-13T05:45:44;1.75;;;0.47;;
43670;SDS011;29267;50.906;7.248;2023-03-13T05:48:09;1.10;;;0.40;;
43670;SDS011;29267;50.906;7.248;2023-03-13T05:50:35;0.63;;;0.43;;
43670;SDS011;29267;50.906;7.248;2023-03-13T05:53:00;1.63;;;0.57;;
43670;SDS011;29267;50.906;7.248;2023-03-13T05:55:26;0.80;;;0.50;;
43670;SDS011;29267;50.906;7.248;2023-03-13T05:57:51;6.47;;;2.08;;
43670;SDS011;29267;50.906;7.248;2023-03-13T06:00:17;1.70;;;1.40;;
43670;SDS011;29267;50.906;7.248;2023-03-13T06:02:43;4.25;;;2.60;;
43670;SDS011;29267;50.906;7.248;2023-03-13T06:05:09;6.25;;;2.70;;
43670;SDS011;29267;50.906;7.248;2023-03-13T06:07:35;3.28;;;2.30;;
43670;SDS011;29267;50.906;7.248;2023-03-13T06:10:01;8.38;;;5.03;;
43670;SDS011;29267;50.906;7.248;2023-03-13T06:12:28;49.45;;;36.58;;
43670;SDS011;29267;50.906;7.248;2023-03-13T06:14:53;39.85;;;31.00;;
43670;SDS011;29267;50.906;7.248;2023-03-13T06:17:19;21.48;;;16.52;;
43670;SDS011;29267;50.906;7.248;2023-03-13T06:19:45;21.42;;;12.98;;
43670;SDS011;29267;50.906;7.248;2023-03-13T06:22:11;9.82;;;5.63;;
43670;SDS011;29267;50.906;7.248;2023-03-13T06:24:36;3.60;;;2.63;;
43670;SDS011;29267;50.906;7.248;2023-03-13T06:27:02;3.13;;;1.48;;
43670;SDS011;29267;50.906;7.248;2023-03-13T06:29:28;3.20;;;2.33;;
43670;SDS011;29267;50.906;7.248;2023-03-13T06:31:53;3.67;;;2.55;;
43670;SDS011;29267;50.906;7.248;2023-03-13T06:34:19;3.20;;;1.20;;
43670;SDS011;29267;50.906;7.248;2023-03-13T06:36:45;1.35;;;1.02;;
43670;SDS011;29267;50.906;7.248;2023-03-13T06:39:10;3.28;;;0.80;;
43670;SDS011;29267;50.906;7.248;2023-03-13T06:41:36;1.45;;;0.68;;
43670;SDS011;29267;50.906;7.248;2023-03-13T06:44:02;2.30;;;1.05;;
43670;SDS011;29267;50.906;7.248;2023-03-13T06:46:29;1.80;;;1.58;;
43670;SDS011;29267;50.906;7.248;2023-03-13T06:48:56;4.88;;;2.85;;
43670;SDS011;29267;50.906;7.248;2023-03-13T06:51:22;8.57;;;3.72;;
43670;SDS011;29267;50.906;7.248;2023-03-13T06:53:48;2.65;;;1.58;;
43670;SDS011;29267;50.906;7.248;2023-03-13T06:56:13;4.32;;;2.50;;
43670;SDS011;29267;50.906;7.248;2023-03-13T06:58:39;12.32;;;7.60;;
43670;SDS011;29267;50.906;7.248;2023-03-13T07:01:09;9.35;;;3.25;;
43670;SDS011;29267;50.906;7.248;2023-03-13T07:03:36;11.10;;;5.38;;
43670;SDS011;29267;50.906;7.248;2023-03-13T07:06:02;8.95;;;4.43;;
43670;SDS011;29267;50.906;7.248;2023-03-13T07:08:30;6.25;;;3.00;;
43670;SDS011;29267;50.906;7.248;2023-03-13T07:11:03;5.57;;;2.95;;
43670;SDS011;29267;50.906;7.248;2023-03-13T07:13:32;3.75;;;1.55;;
43670;SDS011;29267;50.906;7.248;2023-03-13T07:16:05;4.82;;;1.45;;
43670;SDS011;29267;50.906;7.248;2023-03-13T07:18:32;7.20;;;3.55;;
43670;SDS011;29267;50.906;7.248;2023-03-13T07:20:59;9.98;;;4.10;;
43670;SDS011;29267;50.906;7.248;2023-03-13T07:23:27;6.22;;;3.28;;
43670;SDS011;29267;50.906;7.248;2023-03-13T07:25:53;10.05;;;3.70;;
43670;SDS011;29267;50.906;7.248;2023-03-13T07:28:21;8.90;;;3.85;;
43670;SDS011;29267;50.906;7.248;2023-03-13T07:30:47;10.80;;;4.50;;
43670;SDS011;29267;50.906;7.248;2023-03-13T07:33:13;14.93;;;5.13;;
43670;SDS011;29267;50.906;7.248;2023-03-13T07:35:39;16.23;;;4.32;;
43670;SDS011;29267;50.906;7.248;2023-03-13T07:38:04;9.38;;;3.60;;
43670;SDS011;29267;50.906;7.248;2023-03-13T07:40:30;8.45;;;3.60;;
43670;SDS011;29267;50.906;7.248;2023-03-13T07:42:55;15.80;;;6.60;;
43670;SDS011;29267;50.906;7.248;2023-03-13T07:45:21;12.20;;;4.63;;
43670;SDS011;29267;50.906;7.248;2023-03-13T07:47:47;15.23;;;6.43;;
43670;SDS011;29267;50.906;7.248;2023-03-13T07:50:12;4.35;;;2.13;;
43670;SDS011;29267;50.906;7.248;2023-03-13T07:52:38;7.97;;;3.83;;
43670;SDS011;29267;50.906;7.248;2023-03-13T07:55:03;16.95;;;7.15;;
43670;SDS011;29267;50.906;7.248;2023-03-13T07:57:29;5.63;;;3.70;;
43670;SDS011;29267;50.906;7.248;2023-03-13T07:59:55;8.25;;;4.05;;
43670;SDS011;29267;50.906;7.248;2023-03-13T08:02:20;8.45;;;3.88;;
43670;SDS011;29267;50.906;7.248;2023-03-13T08:04:46;7.35;;;3.88;;
43670;SDS011;29267;50.906;7.248;2023-03-13T08:07:15;4.93;;;3.63;;
43670;SDS011;29267;50.906;7.248;2023-03-13T08:09:40;5.93;;;3.67;;
43670;SDS011;29267;50.906;7.248;2023-03-13T08:12:06;7.05;;;3.35;;
43670;SDS011;29267;50.906;7.248;2023-03-13T08:14:32;5.90;;;3.65;;
43670;SDS011;29267;50.906;7.248;2023-03-13T08:16:58;2.20;;;2.00;;
43670;SDS011;29267;50.906;7.248;2023-03-13T08:19:23;3.58;;;2.67;;
43670;SDS011;29267;50.906;7.248;2023-03-13T08:21:49;4.20;;;3.00;;
43670;SDS011;29267;50.906;7.248;2023-03-13T08:24:14;7.00;;;3.78;;
43670;SDS011;29267;50.906;7.248;2023-03-13T08:26:40;12.07;;;4.20;;
43670;SDS011;29267;50.906;7.248;2023-03-13T08:29:07;16.25;;;7.28;;
43670;SDS011;29267;50.906;7.248;2023-03-13T08:31:35;13.88;;;5.75;;
43670;SDS011;29267;50.906;7.248;2023-03-13T08:34:03;13.25;;;5.20;;
43670;SDS011;29267;50.906;7.248;2023-03-13T08:36:32;14.02;;;5.72;;
43670;SDS011;29267;50.906;7.248;2023-03-13T08:39:00;10.07;;;4.85;;
43670;SDS011;29267;50.906;7.248;2023-03-13T08:41:29;16.25;;;5.13;;
43670;SDS011;29267;50.906;7.248;2023-03-13T08:43:58;11.02;;;5.10;;
43670;SDS011;29267;50.906;7.248;2023-03-13T08:46:24;9.18;;;4.10;;
43670;SDS011;29267;50.906;7.248;2023-03-13T08:48:53;5.75;;;3.20;;
43670;SDS011;29267;50.906;7.248;2023-03-13T08:51:19;6.95;;;2.58;;
43670;SDS011;29267;50.906;7.248;2023-03-13T08:53:47;4.30;;;2.03;;
43670;SDS011;29267;50.906;7.248;2023-03-13T08:56:14;3.17;;;1.83;;
43670;SDS011;29267;50.906;7.248;2023-03-13T08:58:41;14.05;;;6.15;;
43670;SDS011;29267;50.906;7.248;2023-03-13T09:01:08;21.25;;;8.15;;
43670;SDS011;29267;50.906;7.248;2023-03-13T09:03:35;15.27;;;5.18;;
43670;SDS011;29267;50.906;7.248;2023-03-13T09:06:01;11.40;;;4.22;;
43670;SDS011;29267;50.906;7.248;2023-03-13T09:08:28;13.82;;;5.05;;
43670;SDS011;29267;50.906;7.248;2023-03-13T09:10:58;17.48;;;8.20;;
43670;SDS011;29267;50.906;7.248;2023-03-13T09:13:25;9.43;;;3.95;;
43670;SDS011;29267;50.906;7.248;2023-03-13T09:15:53;14.57;;;4.65;;
43670;SDS011;29267;50.906;7.248;2023-03-13T09:18:22;12.32;;;6.07;;
43670;SDS011;29267;50.906;7.248;2023-03-13T09:20:48;13.65;;;5.32;;
43670;SDS011;29267;50.906;7.248;2023-03-13T09:23:14;13.80;;;4.80;;
43670;SDS011;29267;50.906;7.248;2023-03-13T09:25:40;9.02;;;4.15;;
43670;SDS011;29267;50.906;7.248;2023-03-13T09:28:05;9.77;;;4.05;;
43670;SDS011;29267;50.906;7.248;2023-03-13T09:30:31;13.02;;;4.97;;
43670;SDS011;29267;50.906;7.248;2023-03-13T09:32:56;14.00;;;4.35;;
43670;SDS011;29267;50.906;7.248;2023-03-13T09:35:22;7.78;;;3.15;;
43670;SDS011;29267;50.906;7.248;2023-03-13T09:37:48;8.75;;;3.45;;
43670;SDS011;29267;50.906;7.248;2023-03-13T09:40:14;11.30;;;4.28;;
43670;SDS011;29267;50.906;7.248;2023-03-13T09:42:46;10.18;;;3.03;;
43670;SDS011;29267;50.906;7.248;2023-03-13T09:45:28;6.25;;;2.95;;
43670;SDS011;29267;50.906;7.248;2023-03-13T09:50:57;11.90;;;4.10;;
43670;SDS011;29267;50.906;7.248;2023-03-13T09:53:45;7.85;;;3.22;;
43670;SDS011;29267;50.906;7.248;2023-03-13T09:58:54;5.25;;;2.95;;
43670;SDS011;29267;50.906;7.248;2023-03-13T10:01:25;5.18;;;2.47;;
43670;SDS011;29267;50.906;7.248;2023-03-13T10:06:33;4.00;;;1.63;;
43670;SDS011;29267;50.906;7.248;2023-03-13T10:09:07;3.60;;;1.67;;
43670;SDS011;29267;50.906;7.248;2023-03-13T10:11:50;2.72;;;1.80;;
43670;SDS011;29267;50.906;7.248;2023-03-13T10:17:00;1.95;;;1.40;;
43670;SDS011;29267;50.906;7.248;2023-03-13T10:19:31;3.47;;;1.58;;
43670;SDS011;29267;50.906;7.248;2023-03-13T10:22:01;2.10;;;1.73;;
43670;SDS011;29267;50.906;7.248;2023-03-13T10:24:40;22.05;;;10.55;;
43670;SDS011;29267;50.906;7.248;2023-03-13T10:27:22;9.75;;;4.25;;
43670;SDS011;29267;50.906;7.248;2023-03-13T10:29:48;66.97;;;33.03;;
43670;SDS011;29267;50.906;7.248;2023-03-13T10:32:14;41.85;;;17.77;;
43670;SDS011;29267;50.906;7.248;2023-03-13T10:34:45;15.68;;;6.07;;
43670;SDS011;29267;50.906;7.248;2023-03-13T10:37:18;7.45;;;3.45;;
43670;SDS011;29267;50.906;7.248;2023-03-13T10:39:46;28.27;;;12.27;;
43670;SDS011;29267;50.906;7.248;2023-03-13T10:42:22;45.67;;;16.65;;
43670;SDS011;29267;50.906;7.248;2023-03-13T10:44:59;29.38;;;13.02;;
43670;SDS011;29267;50.906;7.248;2023-03-13T10:47:26;30.95;;;12.38;;
43670;SDS011;29267;50.906;7.248;2023-03-13T10:49:56;14.20;;;7.18;;
43670;SDS011;29267;50.906;7.248;2023-03-13T10:52:44;6.80;;;4.20;;
43670;SDS011;29267;50.906;7.248;2023-03-13T10:55:11;4.15;;;2.10;;
43670;SDS011;29267;50.906;7.248;2023-03-13T11:03:01;6.20;;;3.05;;
43670;SDS011;29267;50.906;7.248;2023-03-13T11:05:32;3.30;;;1.85;;
43670;SDS011;29267;50.906;7.248;2023-03-13T11:08:18;6.43;;;3.15;;
43670;SDS011;29267;50.906;7.248;2023-03-13T11:15:53;6.50;;;3.08;;
43670;SDS011;29267;50.906;7.248;2023-03-13T11:18:23;2.72;;;1.85;;
43670;SDS011;29267;50.906;7.248;2023-03-13T11:20:53;7.43;;;1.80;;
43670;SDS011;29267;50.906;7.248;2023-03-13T11:23:27;4.85;;;1.83;;
43670;SDS011;29267;50.906;7.248;2023-03-13T11:26:01;4.32;;;2.00;;
43670;SDS011;29267;50.906;7.248;2023-03-13T11:34:05;4.65;;;2.30;;
43670;SDS011;29267;50.906;7.248;2023-03-13T11:36:50;5.05;;;2.42;;
43670;SDS011;29267;50.906;7.248;2023-03-13T11:41:54;4.40;;;1.92;;
43670;SDS011;29267;50.906;7.248;2023-03-13T11:47:53;6.30;;;3.93;;
43670;SDS011;29267;50.906;7.248;2023-03-13T11:56:12;1.50;;;0.95;;
43670;SDS011;29267;50.906;7.248;2023-03-13T11:58:45;1.40;;;1.13;;
43670;SDS011;29267;50.906;7.248;2023-03-13T12:01:42;7.35;;;4.55;;
43670;SDS011;29267;50.906;7.248;2023-03-13T12:15:13;4.25;;;2.75;;
43670;SDS011;29267;50.906;7.248;2023-03-13T12:21:01;1.60;;;1.42;;
43670;SDS011;29267;50.906;7.248;2023-03-13T12:23:44;1.45;;;1.35;;
43670;SDS011;29267;50.906;7.248;2023-03-13T12:26:36;3.03;;;2.13;;
43670;SDS011;29267;50.906;7.248;2023-03-13T12:29:14;0.95;;;0.90;;
43670;SDS011;29267;50.906;7.248;2023-03-13T12:31:42;1.83;;;0.82;;
43670;SDS011;29267;50.906;7.248;2023-03-13T12:34:32;1.67;;;1.30;;
43670;SDS011;29267;50.906;7.248;2023-03-13T12:39:56;4.68;;;0.80;;
43670;SDS011;29267;50.906;7.248;2023-03-13T12:45:06;1.00;;;0.77;;
43670;SDS011;29267;50.906;7.248;2023-03-13T12:53:36;1.33;;;1.13;;
43670;SDS011;29267;50.906;7.248;2023-03-13T12:58:55;3.50;;;0.70;;
43670;SDS011;29267;50.906;7.248;2023-03-13T13:01:31;1.73;;;0.93;;
43670;SDS011;29267;50.906;7.248;2023-03-13T13:04:04;1.88;;;1.23;;
43670;SDS011;29267;50.906;7.248;2023-03-13T13:09:37;1.05;;;0.90;;
43670;SDS011;29267;50.906;7.248;2023-03-13T13:12:23;7.55;;;1.88;;
43670;SDS011;29267;50.906;7.248;2023-03-13T13:32:42;1.60;;;0.98;;
43670;SDS011;29267;50.906;7.248;2023-03-13T13:37:50;3.08;;;1.25;;
43670;SDS011;29267;50.906;7.248;2023-03-13T13:40:20;1.27;;;1.17;;
43670;SDS011;29267;50.906;7.248;2023-03-13T13:53:50;0.73;;;0.68;;
43670;SDS011;29267;50.906;7.248;2023-03-13T14:04:32;1.60;;;0.90;;
43670;SDS011;29267;50.906;7.248;2023-03-13T14:07:11;0.85;;;0.75;;
43670;SDS011;29267;50.906;7.248;2023-03-13T14:11:03;0.57;;;0.57;;
43670;SDS011;29267;50.906;7.248;2023-03-13T14:13:23;1.17;;;0.85;;
43670;SDS011;29267;50.906;7.248;2023-03-13T14:15:50;3.63;;;0.80;;
43670;SDS011;29267;50.906;7.248;2023-03-13T14:18:26;0.73;;;0.60;;
43670;SDS011;29267;50.906;7.248;2023-03-13T14:28:46;15.70;;;7.07;;
43670;SDS011;29267;50.906;7.248;2023-03-13T14:31:29;15.88;;;7.82;;
43670;SDS011;29267;50.906;7.248;2023-03-13T14:34:00;2.43;;;2.23;;
43670;SDS011;29267;50.906;7.248;2023-03-13T14:36:28;1.52;;;1.20;;
43670;SDS011;29267;50.906;7.248;2023-03-13T14:38:55;2.38;;;2.08;;
43670;SDS011;29267;50.906;7.248;2023-03-13T14:41:23;2.88;;;2.53;;
43670;SDS011;29267;50.906;7.248;2023-03-13T14:44:03;2.47;;;2.28;;
43670;SDS011;29267;50.906;7.248;2023-03-13T14:46:34;14.27;;;8.80;;
43670;SDS011;29267;50.906;7.248;2023-03-13T14:51:39;13.93;;;8.05;;
43670;SDS011;29267;50.906;7.248;2023-03-13T14:54:05;3.25;;;2.00;;
43670;SDS011;29267;50.906;7.248;2023-03-13T14:56:47;5.78;;;4.28;;
43670;SDS011;29267;50.906;7.248;2023-03-13T14:59:17;15.95;;;9.52;;
43670;SDS011;29267;50.906;7.248;2023-03-13T15:01:56;17.85;;;12.30;;
43670;SDS011;29267;50.906;7.248;2023-03-13T15:07:23;7.03;;;3.97;;
43670;SDS011;29267;50.906;7.248;2023-03-13T15:09:51;9.20;;;5.45;;
43670;SDS011;29267;50.906;7.248;2023-03-13T15:12:20;2.17;;;1.45;;
43670;SDS011;29267;50.906;7.248;2023-03-13T15:14:50;1.70;;;1.08;;
43670;SDS011;29267;50.906;7.248;2023-03-13T15:17:23;1.33;;;1.13;;
43670;SDS011;29267;50.906;7.248;2023-03-13T15:19:51;3.53;;;1.30;;
43670;SDS011;29267;50.906;7.248;2023-03-13T15:22:26;6.45;;;2.67;;
43670;SDS011;29267;50.906;7.248;2023-03-13T15:24:53;1.42;;;0.90;;
43670;SDS011;29267;50.906;7.248;2023-03-13T15:27:20;0.90;;;0.90;;
43670;SDS011;29267;50.906;7.248;2023-03-13T15:29:48;1.40;;;1.05;;
43670;SDS011;29267;50.906;7.248;2023-03-13T15:32:16;0.63;;;0.63;;
43670;SDS011;29267;50.906;7.248;2023-03-13T15:37:13;1.42;;;0.70;;
43670;SDS011;29267;50.906;7.248;2023-03-13T15:39:39;1.35;;;0.60;;
43670;SDS011;29267;50.906;7.248;2023-03-13T15:42:05;0.70;;;0.70;;
43670;SDS011;29267;50.906;7.248;2023-03-13T15:44:31;0.73;;;0.70;;
43670;SDS011;29267;50.906;7.248;2023-03-13T15:46:57;1.15;;;0.60;;
43670;SDS011;29267;50.906;7.248;2023-03-13T15:49:22;0.43;;;0.43;;
43670;SDS011;29267;50.906;7.248;2023-03-13T15:51:48;0.45;;;0.45;;
43670;SDS011;29267;50.906;7.248;2023-03-13T15:54:14;0.68;;;0.63;;
43670;SDS011;29267;50.906;7.248;2023-03-13T15:56:39;1.38;;;0.88;;
43670;SDS011;29267;50.906;7.248;2023-03-13T15:59:09;1.92;;;0.75;;
43670;SDS011;29267;50.906;7.248;2023-03-13T16:01:36;1.48;;;0.70;;
43670;SDS011;29267;50.906;7.248;2023-03-13T16:04:02;0.80;;;0.80;;
43670;SDS011;29267;50.906;7.248;2023-03-13T16:06:27;4.22;;;0.68;;
43670;SDS011;29267;50.906;7.248;2023-03-13T16:08:57;0.63;;;0.55;;
43670;SDS011;29267;50.906;7.248;2023-03-13T16:11:24;1.92;;;0.70;;
43670;SDS011;29267;50.906;7.248;2023-03-13T16:13:51;1.00;;;0.70;;
43670;SDS011;29267;50.906;7.248;2023-03-13T16:16:21;1.42;;;0.80;;
43670;SDS011;29267;50.906;7.248;2023-03-13T16:18:55;3.17;;;1.23;;
43670;SDS011;29267;50.906;7.248;2023-03-13T16:21:26;2.42;;;1.15;;
43670;SDS011;29267;50.906;7.248;2023-03-13T16:23:53;0.88;;;0.70;;
43670;SDS011;29267;50.906;7.248;2023-03-13T16:26:21;7.63;;;3.67;;
43670;SDS011;29267;50.906;7.248;2023-03-13T16:28:49;1.13;;;0.90;;
43670;SDS011;29267;50.906;7.248;2023-03-13T16:31:16;2.05;;;1.00;;
43670;SDS011;29267;50.906;7.248;2023-03-13T16:33:47;1.40;;;1.17;;
43670;SDS011;29267;50.906;7.248;2023-03-13T16:36:18;1.58;;;0.90;;
43670;SDS011;29267;50.906;7.248;2023-03-13T16:38:48;7.35;;;3.63;;
43670;SDS011;29267;50.906;7.248;2023-03-13T16:41:16;3.92;;;0.93;;
43670;SDS011;29267;50.906;7.248;2023-03-13T16:43:47;2.53;;;1.75;;
43670;SDS011;29267;50.906;7.248;2023-03-13T16:48:38;6.38;;;1.35;;
43670;SDS011;29267;50.906;7.248;2023-03-13T16:51:04;2.42;;;1.27;;
43670;SDS011;29267;50.906;7.248;2023-03-13T16:53:30;2.78;;;1.30;;
43670;SDS011;29267;50.906;7.248;2023-03-13T16:55:56;4.15;;;2.05;;
43670;SDS011;29267;50.906;7.248;2023-03-13T16:58:21;5.47;;;2.25;;
43670;SDS011;29267;50.906;7.248;2023-03-13T17:00:47;10.20;;;2.88;;
43670;SDS011;29267;50.906;7.248;2023-03-13T17:03:12;8.77;;;4.72;;
43670;SDS011;29267;50.906;7.248;2023-03-13T17:05:38;8.07;;;3.50;;
43670;SDS011;29267;50.906;7.248;2023-03-13T17:08:03;7.88;;;2.85;;
43670;SDS011;29267;50.906;7.248;2023-03-13T17:10:31;7.35;;;3.47;;
43670;SDS011;29267;50.906;7.248;2023-03-13T17:12:57;12.55;;;6.82;;
43670;SDS011;29267;50.906;7.248;2023-03-13T17:15:23;14.45;;;5.50;;